Time;durP1;ratioP1;P1;durP2;ratioP2;P2;SDS_P1;SDS_P2;PMS_P1;PMS_P2;Temp;Humidity;BMP_temperature;BMP_pressure;BME280_temperature;BME280_humidity;BME280_pressure;Samples;Min_cycle;Max_cycle;Signal;HPM_P1;HPM_P2
2023/03/05 00:02:06;;;;;;;;;;;;;;;2.43;77.68;99056.69;5054637;28;19920;-82
2023/03/05 00:04:31;;;;;;;;;;;;;;;2.59;78.07;99048.50;5048676;28;19979;-82
2023/03/05 00:06:56;;;;;;;;;;;;;;;2.37;77.50;99054.00;5066140;28;19925;-82
2023/03/05 00:09:22;;;;;;;;;;;;;;;2.59;78.02;99047.69;5062418;28;19925;-82
2023/03/05 00:11:47;;;;;;;;;;;;;;;2.77;78.21;99040.94;5046278;28;19923;-82
2023/03/05 00:14:12;;;;;;;;;;;;;;;2.76;77.81;99041.09;5058416;28;19929;-82
2023/03/05 00:16:38;;;;;;;;;;;;;;;2.69;77.74;99040.22;5051297;28;19917;-82
2023/03/05 00:19:04;;;;;;;;;;;;;;;2.73;77.63;99044.13;5048146;28;19944;-83
2023/03/05 00:21:30;;;;;;;;;;;;;;;2.15;77.63;99032.16;5040570;28;19962;-83
2023/03/05 00:23:56;;;;;;;;;;;;;;;2.50;78.58;99052.28;5042110;28;19936;-83
2023/03/05 00:26:23;;;;;;;;;;;;;;;2.57;78.17;99047.88;5045860;28;20708;-83
2023/03/05 00:28:50;;;;;;;;;;;;;;;2.60;78.22;99038.78;5057928;28;19917;-82
2023/03/05 00:31:20;;;;;;;;;;;;;;;2.67;77.82;99032.53;5043601;28;19978;-84
2023/03/05 00:33:49;;;;;;;;;;;;;;;2.68;77.89;99038.63;5058414;28;19916;-83
2023/03/05 00:36:14;;;;;;;;;;;;;;;2.68;77.66;99042.09;5044398;28;19925;-83
2023/03/05 00:38:39;;;;;;;;;;;;;;;2.56;77.86;99027.81;5059786;28;20290;-82
2023/03/05 00:41:05;;;;;;;;;;;;;;;2.61;78.12;99028.03;5045730;28;19925;-83
2023/03/05 00:43:30;;;;;;;;;;;;;;;2.68;77.51;99028.91;5046625;28;19929;-83
2023/03/05 00:45:55;;;;;;;;;;;;;;;2.65;78.04;99024.00;5046607;28;19920;-82
2023/03/05 00:48:24;;;;;;;;;;;;;;;2.67;77.51;99026.44;5057677;28;20318;-82
2023/03/05 00:50:49;;;;;;;;;;;;;;;2.62;77.49;99015.69;5033651;28;21602;-82
2023/03/05 00:53:15;;;;;;;;;;;;;;;2.41;77.30;99016.56;5050961;28;19956;-82
2023/03/05 00:55:40;;;;;;;;;;;;;;;2.40;78.59;99020.22;5065723;28;20304;-82
2023/03/05 00:58:05;;;;;;;;;;;;;;;2.30;79.01;99019.72;5047909;28;19924;-82
2023/03/05 01:00:31;;;;;;;;;;;;;;;2.35;78.71;99005.97;5050876;28;20714;-82
2023/03/05 01:02:56;;;;;;;;;;;;;;;2.35;79.47;99005.97;5053379;28;20463;-82
2023/03/05 01:05:21;;;;;;;;;;;;;;;2.49;79.15;99005.84;5050412;28;19933;-83
2023/03/05 01:07:47;;;;;;;;;;;;;;;2.38;79.23;98998.50;5050841;28;19921;-82
2023/03/05 01:10:12;;;;;;;;;;;;;;;2.38;79.21;98998.50;5053148;28;19929;-84
2023/03/05 01:12:38;;;;;;;;;;;;;;;2.44;79.69;98996.94;5051442;28;19978;-83
2023/03/05 01:15:04;;;;;;;;;;;;;;;2.27;79.87;98994.56;5046563;28;19924;-83
2023/03/05 01:17:29;;;;;;;;;;;;;;;2.01;81.28;99006.75;5049891;28;19920;-83
2023/03/05 01:19:54;;;;;;;;;;;;;;;1.60;81.61;98997.84;5047436;28;20478;-82
2023/03/05 01:22:20;;;;;;;;;;;;;;;1.43;83.70;98995.47;5052393;28;19927;-83
2023/03/05 01:24:45;;;;;;;;;;;;;;;1.74;83.19;98989.06;5043322;28;19929;-83
2023/03/05 01:27:10;;;;;;;;;;;;;;;1.98;81.77;98992.13;5072452;28;19921;-82
2023/03/05 01:29:36;;;;;;;;;;;;;;;2.03;81.40;98981.03;5048285;28;20289;-82
2023/03/05 01:32:01;;;;;;;;;;;;;;;2.05;82.24;98989.56;5052973;28;19917;-82
2023/03/05 01:34:26;;;;;;;;;;;;;;;2.32;81.13;98985.28;5049322;28;20647;-82
2023/03/05 01:36:51;;;;;;;;;;;;;;;2.42;80.65;98985.78;5051592;28;20403;-82
2023/03/05 01:39:17;;;;;;;;;;;;;;;2.38;80.56;98977.41;5048350;28;19967;-82
2023/03/05 01:41:42;;;;;;;;;;;;;;;2.42;80.49;98977.88;5034307;28;20015;-83
2023/03/05 01:44:17;;;;;;;;;;;;;;;2.50;80.25;98980.34;5042938;28;19921;-84
2023/03/05 01:46:43;;;;;;;;;;;;;;;2.42;80.47;98970.78;5046867;28;19924;-84
2023/03/05 01:49:10;;;;;;;;;;;;;;;2.32;81.05;98969.47;5048504;28;19931;-84
2023/03/05 01:51:58;;;;;;;;;;;;;;;2.53;80.08;98966.78;5052274;28;19917;-83
2023/03/05 01:54:27;;;;;;;;;;;;;;;2.51;80.05;98956.44;5048651;28;19916;-83
2023/03/05 01:56:54;;;;;;;;;;;;;;;2.27;80.85;98944.53;5049590;28;19925;-83
2023/03/05 01:59:20;;;;;;;;;;;;;;;2.45;80.54;98941.41;5051656;28;19974;-83
2023/03/05 02:01:49;;;;;;;;;;;;;;;2.47;80.09;98943.88;5060643;28;19917;-83
2023/03/05 02:04:15;;;;;;;;;;;;;;;2.45;80.04;98944.03;5045560;28;19928;-82
2023/03/05 02:06:42;;;;;;;;;;;;;;;2.48;79.76;98942.84;5047840;28;20186;-82
2023/03/05 02:09:07;;;;;;;;;;;;;;;2.45;79.82;98933.50;5061739;28;19917;-82
2023/03/05 02:11:33;;;;;;;;;;;;;;;2.49;79.92;98929.47;5047207;28;19982;-83
2023/03/05 02:13:59;;;;;;;;;;;;;;;2.40;79.67;98935.13;5043831;28;19925;-82
2023/03/05 02:16:24;;;;;;;;;;;;;;;2.42;79.56;98928.66;5046513;28;19928;-83
2023/03/05 02:18:50;;;;;;;;;;;;;;;2.43;79.64;98924.16;5044483;28;19924;-82
2023/03/05 02:21:26;;;;;;;;;;;;;;;2.25;80.13;98919.41;5045915;28;19925;-82
2023/03/05 02:23:52;;;;;;;;;;;;;;;2.33;80.18;98935.06;5038848;28;19928;-82
2023/03/05 02:26:17;;;;;;;;;;;;;;;2.37;80.00;98938.94;5043329;28;20380;-82
2023/03/05 02:28:52;;;;;;;;;;;;;;;2.22;80.35;98932.97;5046496;28;20396;-82
2023/03/05 02:31:20;;;;;;;;;;;;;;;2.42;79.81;98923.38;5051420;28;20364;-82
2023/03/05 02:33:45;;;;;;;;;;;;;;;2.31;79.97;98923.91;5059639;28;19921;-82
2023/03/05 02:36:11;;;;;;;;;;;;;;;2.30;79.74;98924.91;5049173;28;19916;-83
2023/03/05 02:38:37;;;;;;;;;;;;;;;2.32;79.69;98917.63;5042125;28;19929;-83
2023/03/05 02:41:02;;;;;;;;;;;;;;;2.28;79.87;98916.41;5049954;28;19924;-82
2023/03/05 02:43:27;;;;;;;;;;;;;;;2.36;79.68;98912.81;5049552;28;19987;-84
2023/03/05 02:45:52;;;;;;;;;;;;;;;2.37;79.63;98909.97;5070516;28;19963;-83
2023/03/05 02:48:18;;;;;;;;;;;;;;;2.39;79.88;98905.31;5064975;28;19931;-83
2023/03/05 02:50:43;;;;;;;;;;;;;;;2.38;79.69;98905.53;5047368;28;19925;-83
2023/03/05 02:53:09;;;;;;;;;;;;;;;2.30;79.50;98895.94;5049553;28;19932;-83
2023/03/05 02:55:34;;;;;;;;;;;;;;;2.35;79.41;98898.00;5044579;28;19936;-82
2023/03/05 02:57:59;;;;;;;;;;;;;;;2.33;79.68;98890.31;5043418;28;19927;-82
2023/03/05 03:00:25;;;;;;;;;;;;;;;2.31;79.64;98891.50;5027212;28;19928;-82
2023/03/05 03:02:50;;;;;;;;;;;;;;;2.38;79.36;98898.41;5043420;28;19940;-82
2023/03/05 03:05:15;;;;;;;;;;;;;;;2.31;79.61;98884.41;5056438;28;19933;-83
2023/03/05 03:07:41;;;;;;;;;;;;;;;2.30;79.61;98888.03;5050777;28;19970;-82
2023/03/05 03:10:06;;;;;;;;;;;;;;;2.33;79.41;98886.84;5043792;28;19951;-82
2023/03/05 03:12:35;;;;;;;;;;;;;;;2.39;79.39;98878.16;5027092;28;21377;-82
2023/03/05 03:15:00;;;;;;;;;;;;;;;2.30;79.60;98872.25;5046026;28;19999;-82
2023/03/05 03:17:26;;;;;;;;;;;;;;;2.37;79.37;98867.84;5028084;28;20024;-82
2023/03/05 03:19:51;;;;;;;;;;;;;;;2.36;79.27;98858.28;5027279;28;19940;-82
2023/03/05 03:22:16;;;;;;;;;;;;;;;2.26;79.56;98860.50;5047930;28;19939;-82
2023/03/05 03:24:42;;;;;;;;;;;;;;;2.07;80.40;98867.28;5026752;28;19924;-82
2023/03/05 03:27:07;;;;;;;;;;;;;;;2.31;79.89;98858.09;5042062;28;20384;-82
2023/03/05 03:29:33;;;;;;;;;;;;;;;2.22;79.77;98870.59;5045426;28;19963;-83
2023/03/05 03:31:58;;;;;;;;;;;;;;;2.24;80.28;98858.06;5045214;28;20145;-82
2023/03/05 03:34:23;;;;;;;;;;;;;;;2.31;80.17;98862.53;5049239;28;19921;-82
2023/03/05 03:36:49;;;;;;;;;;;;;;;2.28;80.18;98859.28;5050559;28;19921;-82
2023/03/05 03:39:15;;;;;;;;;;;;;;;2.31;79.82;98852.81;5048464;28;19916;-82
2023/03/05 03:41:41;;;;;;;;;;;;;;;2.34;80.12;98855.03;5046439;28;20394;-83
2023/03/05 03:44:09;;;;;;;;;;;;;;;2.18;80.61;98844.88;5047546;28;19998;-82
2023/03/05 03:46:36;;;;;;;;;;;;;;;2.24;80.47;98847.53;5046884;28;20003;-82
2023/03/05 03:49:02;;;;;;;;;;;;;;;2.31;80.11;98839.66;5060867;28;19924;-82
2023/03/05 03:51:27;;;;;;;;;;;;;;;2.32;80.39;98841.25;5051392;28;20031;-82
2023/03/05 03:53:53;;;;;;;;;;;;;;;2.32;80.35;98841.25;5045473;28;19928;-82
2023/03/05 03:56:18;;;;;;;;;;;;;;;2.31;80.54;98839.66;5046680;28;19921;-82
2023/03/05 03:58:43;;;;;;;;;;;;;;;2.14;80.58;98833.88;5043488;28;20434;-82
2023/03/05 04:01:09;;;;;;;;;;;;;;;2.29;80.81;98829.31;5060874;28;19924;-82
2023/03/05 04:03:34;;;;;;;;;;;;;;;2.32;80.76;98830.72;5030599;28;19929;-82
2023/03/05 04:05:59;;;;;;;;;;;;;;;2.32;80.58;98827.28;5042829;28;19939;-84
2023/03/05 04:08:24;;;;;;;;;;;;;;;2.34;80.89;98823.44;5053860;28;20399;-84
2023/03/05 04:10:50;;;;;;;;;;;;;;;2.34;80.60;98825.28;5047768;28;19927;-83
2023/03/05 04:13:15;;;;;;;;;;;;;;;2.36;80.42;98825.91;5055158;28;19917;-83
2023/03/05 04:15:40;;;;;;;;;;;;;;;2.39;80.86;98825.50;5059364;28;20039;-82
2023/03/05 04:18:05;;;;;;;;;;;;;;;2.38;80.77;98824.66;5044345;28;19921;-82
2023/03/05 04:20:31;;;;;;;;;;;;;;;2.37;81.09;98825.69;5050470;28;19920;-82
2023/03/05 04:22:56;;;;;;;;;;;;;;;2.41;80.58;98821.66;5048447;28;19925;-82
2023/03/05 04:25:21;;;;;;;;;;;;;;;2.35;80.89;98822.44;5044361;28;19956;-82
2023/03/05 04:27:46;;;;;;;;;;;;;;;2.35;81.09;98817.19;5051209;28;19925;-82
2023/03/05 04:30:15;;;;;;;;;;;;;;;2.18;81.32;98816.69;5051994;28;19970;-83
2023/03/05 04:32:40;;;;;;;;;;;;;;;2.35;81.30;98811.09;5055137;28;19920;-82
2023/03/05 04:35:06;;;;;;;;;;;;;;;2.36;81.06;98813.53;5055061;28;19925;-83
2023/03/05 04:37:31;;;;;;;;;;;;;;;2.28;81.67;98811.88;5055045;28;20082;-82
2023/03/05 04:39:57;;;;;;;;;;;;;;;2.30;81.39;98809.06;5052536;28;19928;-82
2023/03/05 04:42:22;;;;;;;;;;;;;;;2.29;81.42;98804.81;5045199;28;19925;-84
2023/03/05 04:44:48;;;;;;;;;;;;;;;2.38;81.40;98789.66;5054033;28;19924;-83
2023/03/05 04:47:13;;;;;;;;;;;;;;;2.37;81.37;98796.72;5052106;28;20351;-84
2023/03/05 04:49:39;;;;;;;;;;;;;;;2.24;81.68;98794.03;5052641;28;19970;-83
2023/03/05 04:52:04;;;;;;;;;;;;;;;2.29;81.41;98784.53;5048095;28;19925;-83
2023/03/05 04:54:29;;;;;;;;;;;;;;;2.23;81.56;98787.97;5051627;28;19921;-84
2023/03/05 04:56:54;;;;;;;;;;;;;;;2.32;81.66;98785.97;5054569;28;19920;-82
2023/03/05 04:59:19;;;;;;;;;;;;;;;2.31;81.61;98775.63;5052127;28;19924;-83
2023/03/05 05:01:45;;;;;;;;;;;;;;;2.18;81.78;98779.84;5048568;28;19920;-83
2023/03/05 05:04:10;;;;;;;;;;;;;;;2.27;81.60;98786.56;5052866;28;20392;-82
2023/03/05 05:06:35;;;;;;;;;;;;;;;2.25;81.91;98778.03;5051663;28;19928;-83
2023/03/05 05:09:00;;;;;;;;;;;;;;;2.13;82.36;98777.00;5051179;28;19925;-84
2023/03/05 05:11:26;;;;;;;;;;;;;;;2.25;81.91;98772.78;5057007;28;19967;-83
2023/03/05 05:13:51;;;;;;;;;;;;;;;2.13;82.54;98774.38;5039081;28;19921;-82
2023/03/05 05:16:17;;;;;;;;;;;;;;;2.16;82.00;98767.91;5052222;28;19917;-82
2023/03/05 05:18:42;;;;;;;;;;;;;;;2.22;81.64;98767.09;5054131;28;20331;-83
2023/03/05 05:21:08;;;;;;;;;;;;;;;2.28;81.64;98761.03;5051503;28;20027;-82
2023/03/05 05:23:33;;;;;;;;;;;;;;;2.24;81.71;98758.00;5048100;28;20283;-82
2023/03/05 05:26:00;;;;;;;;;;;;;;;2.15;81.98;98766.25;5054343;28;19917;-83
2023/03/05 05:28:25;;;;;;;;;;;;;;;2.13;82.00;98760.38;5052287;28;19917;-84
2023/03/05 05:30:50;;;;;;;;;;;;;;;2.16;82.38;98752.91;5051197;28;20403;-84
2023/03/05 05:33:15;;;;;;;;;;;;;;;2.26;81.81;98753.34;5052185;28;19928;-84
2023/03/05 05:35:41;;;;;;;;;;;;;;;2.13;81.97;98752.47;5049116;28;19921;-84
2023/03/05 05:38:06;;;;;;;;;;;;;;;2.24;81.67;98758.00;5049970;28;19923;-83
2023/03/05 05:40:31;;;;;;;;;;;;;;;2.27;81.68;98762.06;5054417;28;19930;-84
2023/03/05 05:42:56;;;;;;;;;;;;;;;2.09;81.99;98757.34;5052897;28;19955;-84
2023/03/05 05:45:22;;;;;;;;;;;;;;;1.88;82.49;98754.00;5035301;28;19925;-83
2023/03/05 05:47:47;;;;;;;;;;;;;;;2.08;82.32;98760.97;5053224;28;19964;-82
2023/03/05 05:50:13;;;;;;;;;;;;;;;2.21;82.27;98758.38;5031734;28;19925;-83
2023/03/05 05:52:38;;;;;;;;;;;;;;;2.06;82.38;98757.72;5052052;28;19921;-82
2023/03/05 05:55:04;;;;;;;;;;;;;;;2.16;82.24;98752.09;5067634;28;20298;-83
2023/03/05 05:57:29;;;;;;;;;;;;;;;2.17;82.01;98762.44;5052590;28;19925;-83
2023/03/05 05:59:54;;;;;;;;;;;;;;;2.05;82.38;98753.44;5067960;28;19925;-83
2023/03/05 06:02:19;;;;;;;;;;;;;;;2.16;81.92;98758.16;5054733;28;19925;-84
2023/03/05 06:04:45;;;;;;;;;;;;;;;2.18;82.18;98750.88;5075787;28;20396;-84
2023/03/05 06:07:10;;;;;;;;;;;;;;;2.06;82.31;98743.75;5051124;28;19943;-83
2023/03/05 06:09:35;;;;;;;;;;;;;;;2.20;82.16;98748.06;5046250;28;19921;-84
2023/03/05 06:12:00;;;;;;;;;;;;;;;2.07;82.43;98746.19;5055719;28;19921;-84
2023/03/05 06:14:27;;;;;;;;;;;;;;;2.16;82.43;98749.47;5051284;28;19960;-83
2023/03/05 06:16:52;;;;;;;;;;;;;;;2.12;82.69;98743.78;5051125;28;19929;-84
2023/03/05 06:19:17;;;;;;;;;;;;;;;2.14;82.49;98751.50;5057141;28;19929;-83
2023/03/05 06:21:42;;;;;;;;;;;;;;;2.20;82.34;98746.25;5051778;28;19925;-82
2023/03/05 06:24:08;;;;;;;;;;;;;;;2.15;82.86;98747.84;5064977;28;19966;-82
2023/03/05 06:26:33;;;;;;;;;;;;;;;2.12;82.73;98751.66;5046880;28;20027;-82
2023/03/05 06:28:58;;;;;;;;;;;;;;;2.03;82.76;98746.78;5054551;28;19974;-82
2023/03/05 06:31:25;;;;;;;;;;;;;;;2.18;82.55;98747.44;5053187;28;19917;-83
2023/03/05 06:33:51;;;;;;;;;;;;;;;2.13;82.32;98744.59;5046236;28;19923;-83
2023/03/05 06:36:17;;;;;;;;;;;;;;;2.05;83.08;98748.19;5051836;28;19921;-84
2023/03/05 06:38:43;;;;;;;;;;;;;;;2.08;83.10;98739.91;5068286;28;19929;-83
2023/03/05 06:41:13;;;;;;;;;;;;;;;2.22;82.50;98757.38;5059933;28;19927;-83
2023/03/05 06:43:39;;;;;;;;;;;;;;;2.09;82.42;98748.63;5051376;28;19930;-83
2023/03/05 06:46:16;;;;;;;;;;;;;;;2.11;82.55;98743.97;5039301;28;19920;-84
2023/03/05 06:48:42;;;;;;;;;;;;;;;2.12;82.62;98749.03;5049877;28;19917;-83
2023/03/05 06:51:26;;;;;;;;;;;;;;;2.10;82.37;98750.22;5049715;28;19923;-83
2023/03/05 06:53:52;;;;;;;;;;;;;;;2.17;82.43;98745.81;5043748;28;19995;-82
2023/03/05 06:56:18;;;;;;;;;;;;;;;2.14;82.53;98741.75;5030783;28;19978;-84
2023/03/05 06:58:44;;;;;;;;;;;;;;;2.22;82.25;98744.22;5045604;28;19916;-83
2023/03/05 07:01:10;;;;;;;;;;;;;;;2.12;82.43;98737.69;5052926;28;19924;-85
2023/03/05 07:03:36;;;;;;;;;;;;;;;2.22;82.25;98731.06;5049696;28;19946;-85
2023/03/05 07:06:06;;;;;;;;;;;;;;;2.17;82.08;98730.84;5050985;28;19928;-83
2023/03/05 07:08:31;;;;;;;;;;;;;;;2.09;82.70;98735.47;5053112;28;19916;-84
2023/03/05 07:10:57;;;;;;;;;;;;;;;2.10;82.85;98727.38;5071017;28;20285;-83
2023/03/05 07:13:22;;;;;;;;;;;;;;;2.09;82.78;98727.56;5052562;28;19925;-83
2023/03/05 07:15:48;;;;;;;;;;;;;;;2.26;82.19;98728.84;5050381;28;19946;-83
2023/03/05 07:18:13;;;;;;;;;;;;;;;2.08;82.44;98728.56;5052779;28;19924;-84
2023/03/05 07:20:38;;;;;;;;;;;;;;;2.20;82.52;98724.38;5039157;28;19978;-84
2023/03/05 07:23:03;;;;;;;;;;;;;;;2.14;82.61;98733.06;5050577;28;19929;-84
2023/03/05 07:25:29;;;;;;;;;;;;;;;2.15;82.70;98732.84;5050297;28;19921;-84
2023/03/05 07:27:54;;;;;;;;;;;;;;;2.34;82.00;98725.22;5060693;28;19964;-83
2023/03/05 07:30:19;;;;;;;;;;;;;;;2.12;82.65;98727.16;5049070;28;19917;-83
2023/03/05 07:32:45;;;;;;;;;;;;;;;2.26;82.50;98727.03;5047499;28;20380;-82
2023/03/05 07:35:10;;;;;;;;;;;;;;;2.37;81.91;98724.81;5051242;28;20305;-82
2023/03/05 07:37:35;;;;;;;;;;;;;;;2.35;82.07;98727.66;5032585;28;19974;-83
2023/03/05 07:40:00;;;;;;;;;;;;;;;2.36;81.72;98726.63;5040557;28;19967;-83
2023/03/05 07:42:26;;;;;;;;;;;;;;;2.31;81.96;98722.97;5044481;28;19929;-84
2023/03/05 07:44:51;;;;;;;;;;;;;;;2.28;82.19;98717.09;5045220;28;20403;-84
2023/03/05 07:47:16;;;;;;;;;;;;;;;2.33;82.09;98715.69;5046723;28;19967;-83
2023/03/05 07:49:42;;;;;;;;;;;;;;;2.29;81.90;98705.53;5052815;28;20269;-82
2023/03/05 07:52:07;;;;;;;;;;;;;;;2.26;82.26;98710.41;5049089;28;20335;-83
2023/03/05 07:54:36;;;;;;;;;;;;;;;2.29;82.04;98708.19;5049336;28;20319;-83
2023/03/05 07:57:03;;;;;;;;;;;;;;;2.31;82.40;98705.38;5050448;28;19924;-84
2023/03/05 07:59:28;;;;;;;;;;;;;;;2.46;81.89;98697.28;5057736;28;19912;-84
2023/03/05 08:01:53;;;;;;;;;;;;;;;2.39;82.17;98701.72;5053864;28;19928;-83
2023/03/05 08:04:18;;;;;;;;;;;;;;;2.38;82.51;98702.75;5050181;28;20430;-82
2023/03/05 08:06:45;;;;;;;;;;;;;;;2.39;82.60;98699.91;5058869;28;20015;-82
2023/03/05 08:09:10;;;;;;;;;;;;;;;2.46;82.09;98703.38;5049037;28;19925;-82
2023/03/05 08:11:36;;;;;;;;;;;;;;;2.53;81.87;98698.94;5030845;28;19969;-83
2023/03/05 08:14:01;;;;;;;;;;;;;;;2.61;81.73;98697.91;5043265;28;19947;-82
2023/03/05 08:16:26;;;;;;;;;;;;;;;2.52;82.10;98689.38;5046908;28;19925;-82
2023/03/05 08:18:56;;;;;;;;;;;;;;;2.66;81.33;98701.56;5047488;28;19929;-82
2023/03/05 08:21:25;;;;;;;;;;;;;;;2.56;82.00;98687.97;5064847;28;19928;-83
2023/03/05 08:23:51;;;;;;;;;;;;;;;2.65;81.72;98688.59;5045873;28;19925;-82
2023/03/05 08:26:18;;;;;;;;;;;;;;;2.73;81.89;98683.91;5058088;28;19927;-84
2023/03/05 08:28:43;;;;;;;;;;;;;;;2.74;81.50;98674.19;5047954;28;19917;-84
2023/03/05 08:31:09;;;;;;;;;;;;;;;2.62;82.15;98683.72;5057033;28;19923;-84
2023/03/05 08:33:35;;;;;;;;;;;;;;;2.72;81.67;98684.13;5058467;28;19917;-83
2023/03/05 08:36:00;;;;;;;;;;;;;;;2.74;81.91;98684.75;5051605;28;19923;-83
2023/03/05 08:38:26;;;;;;;;;;;;;;;2.74;81.76;98684.75;5063548;28;19952;-83
2023/03/05 08:40:51;;;;;;;;;;;;;;;2.65;82.08;98680.69;5048514;28;19940;-82
2023/03/05 08:43:16;;;;;;;;;;;;;;;2.73;81.72;98685.78;5054683;28;19929;-83
2023/03/05 08:45:42;;;;;;;;;;;;;;;2.68;81.92;98685.56;5041001;28;20426;-82
2023/03/05 08:48:07;;;;;;;;;;;;;;;2.74;81.88;98679.47;5055680;28;20038;-83
2023/03/05 08:50:34;;;;;;;;;;;;;;;2.80;82.05;98674.19;5037789;28;21255;-83
2023/03/05 08:53:00;;;;;;;;;;;;;;;2.89;81.74;98672.97;5046895;28;20003;-83
2023/03/05 08:55:25;;;;;;;;;;;;;;;3.00;81.28;98674.19;5044961;28;20019;-84
2023/03/05 08:57:50;;;;;;;;;;;;;;;3.01;80.96;98679.25;5060145;28;19932;-83
2023/03/05 09:00:16;;;;;;;;;;;;;;;3.07;80.78;98661.81;5045315;28;19928;-83
2023/03/05 09:02:41;;;;;;;;;;;;;;;2.99;81.10;98662.03;5048586;28;19929;-83
2023/03/05 09:05:06;;;;;;;;;;;;;;;2.95;81.43;98664.25;5047166;28;19984;-83
2023/03/05 09:07:32;;;;;;;;;;;;;;;3.13;80.53;98668.91;5044474;28;19928;-82
2023/03/05 09:09:57;;;;;;;;;;;;;;;3.11;80.54;98663.03;5045284;28;19964;-80
2023/03/05 09:12:23;;;;;;;;;;;;;;;3.03;80.48;98664.06;5050685;28;19924;-80
2023/03/05 09:14:49;;;;;;;;;;;;;;;3.04;80.46;98659.56;5045881;28;19927;-80
2023/03/05 09:17:14;;;;;;;;;;;;;;;3.02;80.41;98661.63;5048196;28;19921;-81
2023/03/05 09:19:39;;;;;;;;;;;;;;;3.00;80.65;98663.66;5059897;28;19964;-80
2023/03/05 09:22:04;;;;;;;;;;;;;;;2.99;79.94;98664.69;5046537;28;19921;-80
2023/03/05 09:24:30;;;;;;;;;;;;;;;2.99;79.98;98656.78;5057353;28;19928;-79
2023/03/05 09:26:59;;;;;;;;;;;;;;;2.96;80.59;98647.44;5026142;28;19947;-80
2023/03/05 09:29:25;;;;;;;;;;;;;;;2.93;80.66;98652.28;5041910;28;19923;-79
2023/03/05 09:31:50;;;;;;;;;;;;;;;2.96;80.55;98660.63;5056718;28;20398;-79
2023/03/05 09:34:16;;;;;;;;;;;;;;;2.80;81.22;98653.13;5045942;28;19925;-79
2023/03/05 09:36:41;;;;;;;;;;;;;;;2.63;82.32;98656.34;5048333;28;20597;-77
2023/03/05 09:39:06;;;;;;;;;;;;;;;2.89;81.59;98661.63;5059516;28;20000;-77
2023/03/05 09:42:00;;;;;;;;;;;;;;;2.94;81.62;98662.66;5051422;28;20598;-78
2023/03/05 09:44:28;;;;;;;;;;;;;;;2.85;81.97;98663.88;5055305;28;19932;-78
2023/03/05 09:46:55;;;;;;;;;;;;;;;2.93;81.58;98655.75;5064128;28;20326;-78
2023/03/05 09:49:27;;;;;;;;;;;;;;;2.76;83.11;98659.81;5055681;28;19956;-78
2023/03/05 09:51:58;;;;;;;;;;;;;;;2.94;82.15;98660.00;5052550;28;21910;-78
2023/03/05 09:54:28;;;;;;;;;;;;;;;2.97;82.35;98656.16;5070022;28;19925;-79
2023/03/05 09:56:57;;;;;;;;;;;;;;;2.86;83.06;98662.06;5078445;28;19936;-80
2023/03/05 09:59:34;;;;;;;;;;;;;;;2.94;82.47;98665.28;5063908;28;19920;-79
2023/03/05 10:02:02;;;;;;;;;;;;;;;2.84;83.21;98661.44;5065771;28;19932;-82
2023/03/05 10:04:30;;;;;;;;;;;;;;;2.92;82.78;98656.78;5056544;28;20288;-81
2023/03/05 10:07:03;;;;;;;;;;;;;;;2.67;83.68;98652.31;5052558;28;19999;-80
2023/03/05 10:09:38;;;;;;;;;;;;;;;2.70;84.25;98662.44;5048856;28;19916;-79
2023/03/05 10:12:06;;;;;;;;;;;;;;;2.87;84.04;98661.84;5052899;28;19920;-79
2023/03/05 10:14:37;;;;;;;;;;;;;;;2.76;83.45;98651.91;5066276;28;19917;-81
2023/03/05 10:17:21;;;;;;;;;;;;;;;2.84;83.17;98670.13;5051688;28;19943;-79
2023/03/05 10:19:49;;;;;;;;;;;;;;;2.64;83.87;98660.63;5045906;28;19959;-79
2023/03/05 10:22:27;;;;;;;;;;;;;;;2.91;82.79;98655.13;5070949;28;20399;-80
2023/03/05 10:24:59;;;;;;;;;;;;;;;2.96;82.26;98652.72;5048044;28;20350;-81
2023/03/05 10:27:27;;;;;;;;;;;;;;;2.94;82.65;98644.19;5054536;28;20171;-81
2023/03/05 10:30:10;;;;;;;;;;;;;;;3.02;83.04;98641.34;5049493;28;20058;-81
2023/03/05 10:33:14;;;;;;;;;;;;;;;3.21;82.29;98636.25;5053599;28;20318;-80
2023/03/05 10:35:51;;;;;;;;;;;;;;;2.80;84.39;98637.31;4969485;28;19926;-81
2023/03/05 10:38:22;;;;;;;;;;;;;;;2.95;84.70;98632.63;4966025;28;20432;-81
2023/03/05 10:40:51;;;;;;;;;;;;;;;2.98;83.25;98634.03;5017492;28;19956;-81
2023/03/05 10:43:16;;;;;;;;;;;;;;;3.25;82.56;98640.91;5048863;28;19920;-82
2023/03/05 10:45:43;;;;;;;;;;;;;;;3.27;82.17;98633.59;5047326;28;19924;-82
2023/03/05 10:48:11;;;;;;;;;;;;;;;3.14;82.32;98643.34;5067836;28;19925;-81
2023/03/05 10:50:39;;;;;;;;;;;;;;;3.08;82.77;98626.50;5039269;28;19925;-81
2023/03/05 10:53:04;;;;;;;;;;;;;;;2.97;82.61;98622.69;5057233;28;20414;-81
2023/03/05 10:55:30;;;;;;;;;;;;;;;2.92;82.98;98619.88;5044937;28;20011;-81
2023/03/05 10:57:55;;;;;;;;;;;;;;;2.87;82.69;98617.03;5068628;28;19921;-80
2023/03/05 11:00:25;;;;;;;;;;;;;;;2.82;82.87;98608.91;5048301;28;20015;-79
2023/03/05 11:03:04;;;;;;;;;;;;;;;2.90;82.27;98614.00;5064396;28;19943;-78
2023/03/05 11:05:29;;;;;;;;;;;;;;;2.93;82.65;98607.47;5067786;28;19951;-79
2023/03/05 11:07:54;;;;;;;;;;;;;;;2.82;83.80;98601.00;5049311;28;20296;-79
2023/03/05 11:10:20;;;;;;;;;;;;;;;3.04;82.42;98598.94;5050639;28;19920;-79
2023/03/05 11:12:46;;;;;;;;;;;;;;;2.96;82.52;98600.00;5039683;28;20369;-79
2023/03/05 11:15:11;;;;;;;;;;;;;;;3.18;82.21;98599.72;5055892;28;19916;-79
2023/03/05 11:17:37;;;;;;;;;;;;;;;3.31;81.22;98591.78;5051656;28;19927;-78
2023/03/05 11:20:21;;;;;;;;;;;;;;;3.33;81.96;98589.75;5062182;28;19917;-80
2023/03/05 11:23:05;;;;;;;;;;;;;;;3.29;81.81;98585.91;5060861;28;19960;-80
2023/03/05 11:25:32;;;;;;;;;;;;;;;3.30;81.73;98582.25;5051397;28;19916;-79
2023/03/05 11:27:58;;;;;;;;;;;;;;;3.36;81.63;98584.06;5052906;28;19925;-80
2023/03/05 11:30:26;;;;;;;;;;;;;;;3.36;82.06;98578.78;5033802;28;19978;-80
2023/03/05 11:33:14;;;;;;;;;;;;;;;3.57;81.34;98574.03;5054794;28;19916;-81
2023/03/05 11:35:40;;;;;;;;;;;;;;;3.49;81.20;98571.63;5039698;28;19917;-80
2023/03/05 11:38:14;;;;;;;;;;;;;;;3.24;82.95;98577.78;5052107;28;20000;-81
2023/03/05 11:40:39;;;;;;;;;;;;;;;3.48;81.73;98572.63;5046311;28;19917;-81
2023/03/05 11:43:05;;;;;;;;;;;;;;;3.38;81.66;98582.03;5053102;28;20003;-81
2023/03/05 11:45:31;;;;;;;;;;;;;;;3.45;81.45;98578.31;5066986;28;19920;-80
2023/03/05 11:48:00;;;;;;;;;;;;;;;3.57;81.37;98573.19;5043624;28;19924;-80
2023/03/05 11:50:29;;;;;;;;;;;;;;;3.57;81.50;98562.66;5070199;28;19921;-80
2023/03/05 11:52:56;;;;;;;;;;;;;;;3.55;81.56;98562.88;5050596;28;20372;-79
2023/03/05 11:55:26;;;;;;;;;;;;;;;3.57;80.73;98554.72;5053675;28;19923;-79
2023/03/05 11:58:07;;;;;;;;;;;;;;;3.67;80.86;98544.53;5050224;28;20015;-79
2023/03/05 12:00:34;;;;;;;;;;;;;;;3.49;81.57;98545.25;5048747;28;19928;-80
2023/03/05 12:03:01;;;;;;;;;;;;;;;3.65;80.50;98534.19;5053039;28;20029;-79
2023/03/05 12:05:27;;;;;;;;;;;;;;;3.77;80.63;98527.22;5067151;28;19940;-81
2023/03/05 12:07:56;;;;;;;;;;;;;;;3.75;80.50;98525.81;5048181;28;19920;-80
2023/03/05 12:10:23;;;;;;;;;;;;;;;3.76;79.88;98522.94;5046755;28;20376;-80
2023/03/05 12:13:05;;;;;;;;;;;;;;;3.58;80.53;98517.56;5048078;28;19974;-79
2023/03/05 12:15:40;;;;;;;;;;;;;;;3.60;80.44;98522.66;5047733;28;20034;-81
2023/03/05 12:18:08;;;;;;;;;;;;;;;3.60;80.38;98514.75;5065142;28;19920;-80
2023/03/05 12:20:36;;;;;;;;;;;;;;;3.81;79.96;98519.69;5052000;28;20402;-79
2023/03/05 12:23:02;;;;;;;;;;;;;;;3.83;79.79;98511.53;5047902;28;20311;-78
2023/03/05 12:25:27;;;;;;;;;;;;;;;3.97;79.79;98510.44;5062861;28;19920;-80
2023/03/05 12:27:52;;;;;;;;;;;;;;;3.90;79.81;98509.66;5045995;28;19925;-79
2023/03/05 12:30:29;;;;;;;;;;;;;;;3.87;79.63;98504.84;5050048;28;19951;-80
2023/03/05 12:32:54;;;;;;;;;;;;;;;3.95;79.22;98505.38;5061956;28;19979;-80
2023/03/05 12:35:24;;;;;;;;;;;;;;;3.72;79.70;98505.13;5057071;28;19956;-80
2023/03/05 12:37:50;;;;;;;;;;;;;;;3.88;79.68;98509.88;5062295;28;19928;-80
2023/03/05 12:40:23;;;;;;;;;;;;;;;3.81;79.54;98495.91;5054139;28;19916;-78
2023/03/05 12:42:54;;;;;;;;;;;;;;;3.79;79.49;98503.25;5056448;28;20425;-79
2023/03/05 12:45:19;;;;;;;;;;;;;;;3.71;79.59;98492.97;5051537;28;20011;-79
2023/03/05 12:47:45;;;;;;;;;;;;;;;3.69;80.46;98489.72;5055281;28;19963;-80
2023/03/05 12:50:26;;;;;;;;;;;;;;;3.74;79.80;98487.22;5053619;28;20812;-80
2023/03/05 12:53:10;;;;;;;;;;;;;;;3.66;80.40;98479.59;5063533;28;19917;-78
2023/03/05 12:55:39;;;;;;;;;;;;;;;3.62;80.46;98476.56;5067534;28;19916;-81
2023/03/05 12:58:07;;;;;;;;;;;;;;;3.61;80.05;98477.59;5062934;28;20375;-80